Airfield :
LOGIN :

Register | Disclaimer

   EN    FR    IT 

 










Legend :    VFR   Marginal VFR   IFR   Intensive IFR   Very Intensive IFR
Visi :
Ceiling :
>= 8 km
>= 3000ft
5 to 8 km
1000 to 3000 ft
1500m to 5 km
500 to 1000 ft
800 to 1500m
200 to 500 ft
< 800m
< 200 ft
Symbols :   Thunderstorms  Fog  Heavy snow  Heavy precipitations  Wind > 20 kt
SIGMETs :     Misc.  Thunderstorms  Icing  Turbulence  Mountain Waves  Volcanic Ashes







- Airport Elevation : 13 ft
- IATA code : OST


EBOS - Oostend bruges Int.

CURRENT METAR :
  • 222350Z 28018KT 9999 SCT022 BKN044 12/07 Q1017 NOSIG

EXPIRED METARs :
  • 222320Z 30019KT 9999 FEW028 SCT044 12/05 Q1017 NOSIG
  • 222250Z 29019KT 9999 SCT035 SCT044 12/06 Q1017 NOSIG
  • 222220Z 29020KT 9999 SCT032 SCT040 12/05 Q1017 NOSIG
  • 222150Z 29019KT 9999 SCT032 12/06 Q1017 NOSIG
  • 222120Z 29019KT 9999 FEW032 SCT040 12/06 Q1017 NOSIG

TAF TAF EBOS
Valid from the 23 at 00:00 until the 24 at 06:00 UTC


222300Z 2300/2406 29018KT 9999 FEW025 SCT040
BECMG 2307/2309 23010KT
BECMG 2312/2314 4500 -RADZ SCT008 BKN012
BECMG 2314/2316 SCT006 BKN009
TEMPO 2315/2319 2500 DZRA BKN004
BECMG 2319/2321 8000 NSW SCT015
BECMG 2401/2403 17010KT
PROB40
TEMPO 2404/2406 3000 -RADZ BKN004
No reported NOTAMs for that airfield.



MET'MAP, your aeronautical weather chart ! - Copyright ORBIFLY December 2007 - Disclaimer

ORBIFLY MET'MAP TEAM :

Programming & Development : Alexandra Zaïnal
Concept & Development : Baudouin d'Aumeries
Co-Development & Prog : Marc-Olivier Méhu
Technical & hardware support : Manuel Goepfert

Contact : metmap@orbifly.com




SOURCES & CREDITS :

   NOAA